Time;durP1;ratioP1;P1;durP2;ratioP2;P2;SDS_P1;SDS_P2;PMS_P1;PMS_P2;Temp;Humidity;BMP_temperature;BMP_pressure;BME280_temperature;BME280_humidity;BME280_pressure;Samples;Min_cycle;Max_cycle;Signal;HPM_P1;HPM_P2
2022/10/02 00:01:55;;;;;;;;;;;;;;;;;;5063615;28;822;-72
2022/10/02 00:04:22;;;;;;;;;;;;;;;;;;5063464;28;1293;-72
2022/10/02 00:06:48;;;;;;;;;;;;;;;;;;5063388;28;815;-72
2022/10/02 00:09:34;;;;;;;;;;;;;;;;;;5063154;28;854;-72
2022/10/02 00:12:00;;;;;;;;;;;;;;;;;;5063705;28;805;-72
2022/10/02 00:14:29;;;;;;;;;;;;;;;;;;5062923;28;1271;-72
2022/10/02 00:16:56;;;;;;;;;;;;;;;;;;5063332;28;985;-72
2022/10/02 00:19:21;;;;;;;;;;;;;;;;;;5063180;28;1898;-72
2022/10/02 00:21:51;;;;;;;;;;;;;;;;;;5063792;28;914;-72
2022/10/02 00:24:20;;;;;;;;;;;;;;;;;;5063080;28;1195;-72
2022/10/02 00:27:14;;;;;;;;;;;;;;;;;;5062958;28;989;-72
2022/10/02 00:29:49;;;;;;;;;;;;;;;;;;5061757;28;862;-72
2022/10/02 00:32:14;;;;;;;;;;;;;;;;;;5063039;28;826;-72
2022/10/02 00:34:47;;;;;;;;;;;;;;;;;;5062437;28;1156;-72
2022/10/02 00:37:21;;;;;;;;;;;;;;;;;;5063174;28;1051;-72
2022/10/02 00:40:05;;;;;;;;;;;;;;;;;;5062929;28;1957;-72
2022/10/02 00:42:49;;;;;;;;;;;;;;;;;;5062944;28;1032;-72
2022/10/02 00:45:33;;;;;;;;;;;;;;;;;;5062609;28;1235;-72
2022/10/02 00:48:02;;;;;;;;;;;;;;;;;;5063081;28;989;-72
2022/10/02 00:50:37;;;;;;;;;;;;;;;;;;5062445;28;902;-72
2022/10/02 00:53:08;;;;;;;;;;;;;;;;;;5062533;28;1004;-72
2022/10/02 00:55:36;;;;;;;;;;;;;;;;;;5062226;28;1199;-72
2022/10/02 00:58:07;;;;;;;;;;;;;;;;;;5062611;28;1967;-72
2022/10/02 01:00:32;;;;;;;;;;;;;;;;;;5062446;28;1076;-72
2022/10/02 01:03:03;;;;;;;;;;;;;;;;;;5061269;28;1203;-72
2022/10/02 01:05:33;;;;;;;;;;;;;;;;;;5062082;28;1196;-72
2022/10/02 01:07:59;;;;;;;;;;;;;;;;;;5062741;28;783;-72
2022/10/02 01:10:25;;;;;;;;;;;;;;;;;;5062565;28;893;-72
2022/10/02 01:12:50;;;;;;;;;;;;;;;;;;5062561;28;989;-72
2022/10/02 01:15:19;;;;;;;;;;;;;;;;;;5062339;28;1231;-72
2022/10/02 01:17:47;;;;;;;;;;;;;;;;;;5062287;28;1890;-72
2022/10/02 01:20:15;;;;;;;;;;;;;;;;;;5062228;28;953;-72
2022/10/02 01:22:49;;;;;;;;;;;;;;;;;;5062289;28;861;-72
2022/10/02 01:25:15;;;;;;;;;;;;;;;;;;5062157;28;1227;-72
2022/10/02 01:27:40;;;;;;;;;;;;;;;;;;5062220;28;906;-72
2022/10/02 01:30:07;;;;;;;;;;;;;;;;;;5062277;28;824;-72
2022/10/02 01:32:32;;;;;;;;;;;;;;;;;;5062004;28;1101;-72
2022/10/02 01:34:59;;;;;;;;;;;;;;;;;;5061645;28;1314;-72
2022/10/02 01:37:28;;;;;;;;;;;;;;;;;;5062214;28;807;-72
2022/10/02 01:39:55;;;;;;;;;;;;;;;;;;5062051;28;1897;-72
2022/10/02 01:42:20;;;;;;;;;;;;;;;;;;5062082;28;819;-72
2022/10/02 01:44:45;;;;;;;;;;;;;;;;;;5061918;28;1286;-72
2022/10/02 01:47:30;;;;;;;;;;;;;;;;;;5061653;28;866;-72
2022/10/02 01:50:10;;;;;;;;;;;;;;;;;;5062178;28;941;-72
2022/10/02 01:52:54;;;;;;;;;;;;;;;;;;5061716;28;930;-72
2022/10/02 01:55:31;;;;;;;;;;;;;;;;;;5061696;28;1266;-72
2022/10/02 01:58:02;;;;;;;;;;;;;;;;;;5061644;28;1951;-72
2022/10/02 02:00:37;;;;;;;;;;;;;;;;;;5061800;28;973;-72
2022/10/02 02:03:14;;;;;;;;;;;;;;;;;;5060861;28;1005;-72
2022/10/02 02:05:43;;;;;;;;;;;;;;;;;;5061312;28;1249;-72
2022/10/02 02:08:22;;;;;;;;;;;;;;;;;;5061495;28;938;-72
2022/10/02 02:10:53;;;;;;;;;;;;;;;;;;5061920;28;795;-72
2022/10/02 02:13:25;;;;;;;;;;;;;;;;;;5061336;28;938;-72
2022/10/02 02:15:56;;;;;;;;;;;;;;;;;;5061150;28;1254;-72
2022/10/02 02:18:26;;;;;;;;;;;;;;;;;;5061219;28;1890;-72
2022/10/02 02:20:54;;;;;;;;;;;;;;;;;;5061717;28;870;-72
2022/10/02 02:23:23;;;;;;;;;;;;;;;;;;5061194;28;894;-72
2022/10/02 02:25:50;;;;;;;;;;;;;;;;;;5061164;28;1267;-72
2022/10/02 02:28:17;;;;;;;;;;;;;;;;;;5061249;28;997;-72
2022/10/02 02:30:44;;;;;;;;;;;;;;;;;;5061319;28;889;-72
2022/10/02 02:33:21;;;;;;;;;;;;;;;;;;5061139;28;977;-72
2022/10/02 02:35:48;;;;;;;;;;;;;;;;;;5060933;28;1266;-72
2022/10/02 02:38:17;;;;;;;;;;;;;;;;;;5061528;28;1894;-72
2022/10/02 02:40:44;;;;;;;;;;;;;;;;;;5061360;28;810;-72
2022/10/02 02:43:18;;;;;;;;;;;;;;;;;;5061133;28;826;-72
2022/10/02 02:45:47;;;;;;;;;;;;;;;;;;5060754;28;1243;-72
2022/10/02 02:48:16;;;;;;;;;;;;;;;;;;5061023;28;807;-72
2022/10/02 02:51:08;;;;;;;;;;;;;;;;;;5061083;28;1017;-72
2022/10/02 02:53:38;;;;;;;;;;;;;;;;;;5059281;28;1284;-72
2022/10/02 02:56:06;;;;;;;;;;;;;;;;;;5061009;28;807;-72
2022/10/02 02:58:37;;;;;;;;;;;;;;;;;;5060844;28;1952;-72
2022/10/02 03:01:03;;;;;;;;;;;;;;;;;;5060992;28;969;-72
2022/10/02 03:03:28;;;;;;;;;;;;;;;;;;5060725;28;930;-72
2022/10/02 03:06:01;;;;;;;;;;;;;;;;;;5060416;28;1150;-72
2022/10/02 03:08:28;;;;;;;;;;;;;;;;;;5060772;28;842;-72
2022/10/02 03:11:04;;;;;;;;;;;;;;;;;;5060878;28;810;-72
2022/10/02 03:13:44;;;;;;;;;;;;;;;;;;5061281;28;905;-72
2022/10/02 03:16:15;;;;;;;;;;;;;;;;;;5063977;28;997;-72
2022/10/02 03:18:47;;;;;;;;;;;;;;;;;;5064222;28;1897;-72
2022/10/02 03:21:17;;;;;;;;;;;;;;;;;;5064101;28;949;-72
2022/10/02 03:24:01;;;;;;;;;;;;;;;;;;5064277;28;1254;-72
2022/10/02 03:26:33;;;;;;;;;;;;;;;;;;5063932;28;1000;-72
2022/10/02 03:29:00;;;;;;;;;;;;;;;;;;5064576;28;807;-72
2022/10/02 03:31:27;;;;;;;;;;;;;;;;;;5064108;28;969;-72
2022/10/02 03:33:52;;;;;;;;;;;;;;;;;;5063660;28;1268;-72
2022/10/02 03:36:19;;;;;;;;;;;;;;;;;;5063893;28;986;-72
2022/10/02 03:38:48;;;;;;;;;;;;;;;;;;5063863;28;1898;-72
2022/10/02 03:41:13;;;;;;;;;;;;;;;;;;5062659;28;1561;-72
2022/10/02 03:43:38;;;;;;;;;;;;;;;;;;5063789;28;1266;-72
2022/10/02 03:46:03;;;;;;;;;;;;;;;;;;5063511;28;776;-72
2022/10/02 03:48:28;;;;;;;;;;;;;;;;;;5062505;28;830;-72
2022/10/02 03:50:54;;;;;;;;;;;;;;;;;;5063914;28;977;-72
2022/10/02 03:53:20;;;;;;;;;;;;;;;;;;5063793;28;787;-72
2022/10/02 03:55:49;;;;;;;;;;;;;;;;;;5063437;28;1167;-72
2022/10/02 03:58:19;;;;;;;;;;;;;;;;;;5063659;28;1897;-72
2022/10/02 04:00:49;;;;;;;;;;;;;;;;;;5063569;28;902;-72
2022/10/02 04:03:19;;;;;;;;;;;;;;;;;;5063612;28;1017;-72
2022/10/02 04:05:50;;;;;;;;;;;;;;;;;;5062980;28;1247;-72
2022/10/02 04:08:17;;;;;;;;;;;;;;;;;;5063617;28;925;-72
2022/10/02 04:10:45;;;;;;;;;;;;;;;;;;5063264;28;835;-72
2022/10/02 04:13:15;;;;;;;;;;;;;;;;;;5063469;28;961;-72
2022/10/02 04:15:40;;;;;;;;;;;;;;;;;;5062897;28;1279;-72
2022/10/02 04:18:10;;;;;;;;;;;;;;;;;;5063494;28;1897;-72
2022/10/02 04:20:42;;;;;;;;;;;;;;;;;;5063373;28;897;-72
2022/10/02 04:23:16;;;;;;;;;;;;;;;;;;5063441;28;928;-72
2022/10/02 04:25:48;;;;;;;;;;;;;;;;;;5061995;28;1246;-72
2022/10/02 04:28:14;;;;;;;;;;;;;;;;;;5063485;28;806;-72
2022/10/02 04:30:40;;;;;;;;;;;;;;;;;;5061799;28;1415;-72
2022/10/02 04:33:12;;;;;;;;;;;;;;;;;;5063352;28;823;-72
2022/10/02 04:35:45;;;;;;;;;;;;;;;;;;5062642;28;1151;-73
2022/10/02 04:38:10;;;;;;;;;;;;;;;;;;5062984;28;1906;-72
2022/10/02 04:40:35;;;;;;;;;;;;;;;;;;5062867;28;858;-72
2022/10/02 04:43:16;;;;;;;;;;;;;;;;;;5063111;28;870;-72
2022/10/02 04:45:44;;;;;;;;;;;;;;;;;;5062497;28;1172;-72
2022/10/02 04:48:24;;;;;;;;;;;;;;;;;;5063127;28;877;-72
2022/10/02 04:51:01;;;;;;;;;;;;;;;;;;5062892;28;1005;-72
2022/10/02 04:53:29;;;;;;;;;;;;;;;;;;5062944;28;822;-72
2022/10/02 04:56:05;;;;;;;;;;;;;;;;;;5060905;28;1230;-72
2022/10/02 04:58:39;;;;;;;;;;;;;;;;;;5062788;28;1898;-72
2022/10/02 05:01:07;;;;;;;;;;;;;;;;;;5061427;28;1179;-72
2022/10/02 05:03:38;;;;;;;;;;;;;;;;;;5062654;28;1116;-72
2022/10/02 05:06:12;;;;;;;;;;;;;;;;;;5062213;28;1118;-73
2022/10/02 05:08:41;;;;;;;;;;;;;;;;;;5062756;28;803;-73
2022/10/02 05:11:15;;;;;;;;;;;;;;;;;;5063047;28;716;-73
2022/10/02 05:13:59;;;;;;;;;;;;;;;;;;5063197;28;1167;-72
2022/10/02 05:16:47;;;;;;;;;;;;;;;;;;5061994;28;1028;-72
2022/10/02 05:19:28;;;;;;;;;;;;;;;;;;5056688;28;1902;-73
2022/10/02 05:21:53;;;;;;;;;;;;;;;;;;5062246;28;862;-72
2022/10/02 05:24:37;;;;;;;;;;;;;;;;;;5062381;28;1258;-72
2022/10/02 05:27:17;;;;;;;;;;;;;;;;;;5062178;28;815;-72
2022/10/02 05:29:57;;;;;;;;;;;;;;;;;;5062325;28;885;-72
2022/10/02 05:32:23;;;;;;;;;;;;;;;;;;5062364;28;997;-72
2022/10/02 05:35:00;;;;;;;;;;;;;;;;;;5061821;28;1259;-72
2022/10/02 05:37:36;;;;;;;;;;;;;;;;;;5060911;28;831;-72
2022/10/02 05:40:12;;;;;;;;;;;;;;;;;;5062016;28;1961;-72
2022/10/02 05:42:39;;;;;;;;;;;;;;;;;;5061758;28;838;-72
2022/10/02 05:45:18;;;;;;;;;;;;;;;;;;5061637;28;1182;-72
2022/10/02 05:47:45;;;;;;;;;;;;;;;;;;5061934;28;937;-72
2022/10/02 05:50:10;;;;;;;;;;;;;;;;;;5062015;28;811;-72
2022/10/02 05:52:40;;;;;;;;;;;;;;;;;;5061792;28;977;-72
2022/10/02 05:55:05;;;;;;;;;;;;;;;;;;5061406;28;1187;-72
2022/10/02 05:58:00;;;;;;;;;;;;;;;;;;5061623;28;858;-73
2022/10/02 06:00:46;;;;;;;;;;;;;;;;;;5024519;28;1255;-72
2022/10/02 06:03:12;;;;;;;;;;;;;;;;;;5061669;28;854;-72
2022/10/02 06:05:42;;;;;;;;;;;;;;;;;;5061297;28;1168;-72
2022/10/02 06:08:09;;;;;;;;;;;;;;;;;;5061614;28;902;-72
2022/10/02 06:10:42;;;;;;;;;;;;;;;;;;5061679;28;1009;-72
2022/10/02 06:13:13;;;;;;;;;;;;;;;;;;5061735;28;828;-72
2022/10/02 06:15:57;;;;;;;;;;;;;;;;;;5061223;28;1180;-72
2022/10/02 06:18:25;;;;;;;;;;;;;;;;;;5061431;28;1890;-72
2022/10/02 06:20:52;;;;;;;;;;;;;;;;;;5061528;28;869;-72
2022/10/02 06:23:26;;;;;;;;;;;;;;;;;;5061603;28;1056;-71
2022/10/02 06:25:56;;;;;;;;;;;;;;;;;;5061006;28;1244;-72
2022/10/02 06:28:29;;;;;;;;;;;;;;;;;;5061870;28;1075;-72
2022/10/02 06:30:57;;;;;;;;;;;;;;;;;;5061274;28;791;-72
2022/10/02 06:33:27;;;;;;;;;;;;;;;;;;5061157;28;1028;-72
2022/10/02 06:36:12;;;;;;;;;;;;;;;;;;5073411;22;3605;-64
2022/10/02 06:38:56;;;;;;;;;;;;;;;;;;5061336;28;1983;-64
2022/10/02 06:41:40;;;;;;;;;;;;;;;;;;5059898;28;1560;-64
2022/10/02 06:44:25;;;;;;;;;;;;;;;;;;5061172;28;917;-64
2022/10/02 06:47:09;;;;;;;;;;;;;;;;;;5060769;28;1278;-64
2022/10/02 06:49:48;;;;;;;;;;;;;;;;;;5060506;28;826;-64
2022/10/02 06:52:22;;;;;;;;;;;;;;;;;;5061038;28;1109;-64
2022/10/02 06:55:06;;;;;;;;;;;;;;;;;;5059535;28;1199;-64
2022/10/02 06:57:34;;;;;;;;;;;;;;;;;;5061469;28;992;-64
2022/10/02 07:00:09;;;;;;;;;;;;;;;;;;5061044;28;1902;-64
2022/10/02 07:02:47;;;;;;;;;;;;;;;;;;5076533;28;890;-64
2022/10/02 07:05:12;;;;;;;;;;;;;;;;;;5060379;28;1191;-64
2022/10/02 07:07:50;;;;;;;;;;;;;;;;;;5060842;28;802;-65
2022/10/02 07:10:32;;;;;;;;;;;;;;;;;;5060492;28;1039;-65
2022/10/02 07:13:01;;;;;;;;;;;;;;;;;;5061024;28;799;-64
2022/10/02 07:16:05;;;;;;;;;;;;;;;;;;5060627;28;1171;-65
2022/10/02 07:18:31;;;;;;;;;;;;;;;;;;5029449;28;1957;-64
2022/10/02 07:21:15;;;;;;;;;;;;;;;;;;5060665;28;825;-65
2022/10/02 07:24:00;;;;;;;;;;;;;;;;;;5060805;28;976;-65
2022/10/02 07:26:46;;;;;;;;;;;;;;;;;;5049327;28;1293;-65
2022/10/02 07:29:12;;;;;;;;;;;;;;;;;;5060510;28;826;-65
2022/10/02 07:31:55;;;;;;;;;;;;;;;;;;5060674;28;870;-65
2022/10/02 07:34:59;;;;;;;;;;;;;;;;;;5060421;28;974;-65
2022/10/02 07:37:39;;;;;;;;;;;;;;;;;;4998598;28;1299;-65
2022/10/02 07:40:20;;;;;;;;;;;;;;;;;;4998673;28;1890;-65
2022/10/02 07:42:57;;;;;;;;;;;;;;;;;;5039855;28;993;-65
2022/10/02 07:45:44;;;;;;;;;;;;;;;;;;5060065;28;1262;-65
2022/10/02 07:48:27;;;;;;;;;;;;;;;;;;5060441;28;869;-65
2022/10/02 07:51:02;;;;;;;;;;;;;;;;;;5060295;28;989;-65
2022/10/02 07:53:37;;;;;;;;;;;;;;;;;;5060465;28;881;-65
2022/10/02 07:56:04;;;;;;;;;;;;;;;;;;5060179;28;1195;-65
2022/10/02 07:58:37;;;;;;;;;;;;;;;;;;5060194;28;1983;-65
2022/10/02 08:01:07;;;;;;;;;;;;;;;;;;5061335;28;906;-65
2022/10/02 08:03:34;;;;;;;;;;;;;;;;;;5063680;28;824;-65
2022/10/02 08:06:03;;;;;;;;;;;;;;;;;;5063412;28;1238;-65
2022/10/02 08:08:37;;;;;;;;;;;;;;;;;;5063527;28;901;-65
2022/10/02 08:11:08;;;;;;;;;;;;;;;;;;5063543;28;803;-66
2022/10/02 08:13:45;;;;;;;;;;;;;;;;;;5063796;28;980;-65
2022/10/02 08:16:12;;;;;;;;;;;;;;;;;;5063230;28;1337;-65
2022/10/02 08:18:43;;;;;;;;;;;;;;;;;;5063343;28;1901;-65
2022/10/02 08:21:11;;;;;;;;;;;;;;;;;;5063134;28;830;-65
2022/10/02 08:23:41;;;;;;;;;;;;;;;;;;5063418;28;993;-66
2022/10/02 08:26:18;;;;;;;;;;;;;;;;;;5062810;28;1234;-65
2022/10/02 08:28:46;;;;;;;;;;;;;;;;;;5063256;28;941;-65
2022/10/02 08:31:12;;;;;;;;;;;;;;;;;;5063140;28;867;-65
2022/10/02 08:33:40;;;;;;;;;;;;;;;;;;5063232;28;771;-65
2022/10/02 08:36:24;;;;;;;;;;;;;;;;;;5061296;28;1310;-65
2022/10/02 08:39:11;;;;;;;;;;;;;;;;;;5063142;28;1901;-65
2022/10/02 08:41:36;;;;;;;;;;;;;;;;;;5062925;28;944;-65
2022/10/02 08:44:13;;;;;;;;;;;;;;;;;;5063009;28;799;-65
2022/10/02 08:46:57;;;;;;;;;;;;;;;;;;5062451;28;1180;-66
2022/10/02 08:49:40;;;;;;;;;;;;;;;;;;5063021;28;866;-65
2022/10/02 08:52:14;;;;;;;;;;;;;;;;;;5062751;28;973;-65
2022/10/02 08:54:53;;;;;;;;;;;;;;;;;;5062621;28;1234;-66
2022/10/02 08:57:21;;;;;;;;;;;;;;;;;;5062459;28;922;-65
2022/10/02 09:00:05;;;;;;;;;;;;;;;;;;5062807;28;1898;-65
2022/10/02 09:02:43;;;;;;;;;;;;;;;;;;5062718;28;839;-65
2022/10/02 09:05:40;;;;;;;;;;;;;;;;;;5062236;28;1270;-65
2022/10/02 09:08:25;;;;;;;;;;;;;;;;;;5062544;28;961;-65
2022/10/02 09:11:09;;;;;;;;;;;;;;;;;;5062511;28;898;-66
2022/10/02 09:13:45;;;;;;;;;;;;;;;;;;5061237;28;982;-66
2022/10/02 09:16:26;;;;;;;;;;;;;;;;;;5044421;28;1431;-65
2022/10/02 09:18:57;;;;;;;;;;;;;;;;;;5062318;28;1957;-65
2022/10/02 09:21:41;;;;;;;;;;;;;;;;;;5062344;28;996;-65
2022/10/02 09:24:16;;;;;;;;;;;;;;;;;;5062784;28;791;-65
2022/10/02 09:26:55;;;;;;;;;;;;;;;;;;5061919;28;1168;-65
2022/10/02 09:29:33;;;;;;;;;;;;;;;;;;5062244;28;921;-65
2022/10/02 09:32:08;;;;;;;;;;;;;;;;;;5077207;28;1191;-65
2022/10/02 09:34:33;;;;;;;;;;;;;;;;;;5061851;28;1146;-65
2022/10/02 09:36:58;;;;;;;;;;;;;;;;;;5061927;28;1306;-65
2022/10/02 09:39:33;;;;;;;;;;;;;;;;;;5062158;28;1898;-65
2022/10/02 09:42:16;;;;;;;;;;;;;;;;;;5061902;28;883;-65
2022/10/02 09:44:47;;;;;;;;;;;;;;;;;;5062117;28;1260;-65
2022/10/02 09:47:13;;;;;;;;;;;;;;;;;;5061897;28;1064;-65
2022/10/02 09:49:41;;;;;;;;;;;;;;;;;;5062007;28;886;-65
2022/10/02 09:52:25;;;;;;;;;;;;;;;;;;5060508;28;1486;-65
2022/10/02 09:54:50;;;;;;;;;;;;;;;;;;5061509;28;1195;-65
2022/10/02 09:57:34;;;;;;;;;;;;;;;;;;5061974;28;798;-65
2022/10/02 09:59:59;;;;;;;;;;;;;;;;;;5062195;28;1951;-65
2022/10/02 10:02:24;;;;;;;;;;;;;;;;;;5061647;28;988;-65
2022/10/02 10:05:08;;;;;;;;;;;;;;;;;;5061934;28;1153;-65
2022/10/02 10:07:46;;;;;;;;;;;;;;;;;;5061565;28;989;-65
2022/10/02 10:10:24;;;;;;;;;;;;;;;;;;5061656;28;1055;-65
2022/10/02 10:12:49;;;;;;;;;;;;;;;;;;5060244;28;890;-65
2022/10/02 10:15:36;;;;;;;;;;;;;;;;;;5061291;28;1243;-65
2022/10/02 10:18:11;;;;;;;;;;;;;;;;;;5061069;28;1964;-65
2022/10/02 10:20:50;;;;;;;;;;;;;;;;;;5061118;28;1029;-65
2022/10/02 10:23:17;;;;;;;;;;;;;;;;;;5060882;28;837;-65
2022/10/02 10:25:52;;;;;;;;;;;;;;;;;;5061070;28;1163;-65
2022/10/02 10:28:32;;;;;;;;;;;;;;;;;;5061277;28;834;-65
2022/10/02 10:31:01;;;;;;;;;;;;;;;;;;5061541;28;873;-65
2022/10/02 10:33:26;;;;;;;;;;;;;;;;;;5061371;28;894;-65
2022/10/02 10:38:30;;;;;;;;;;;;;;;;;;5060783;28;1167;-65
2022/10/02 10:39:06;;;;;;;;;;;;;;;;;;5060979;28;1898;-65
2022/10/02 10:41:41;;;;;;;;;;;;;;;;;;5061238;28;918;-65
2022/10/02 10:44:28;;;;;;;;;;;;;;;;;;5061276;28;723;-65
2022/10/02 10:46:58;;;;;;;;;;;;;;;;;;5061649;28;1346;-65
2022/10/02 10:49:37;;;;;;;;;;;;;;;;;;5061292;28;955;-65
2022/10/02 10:52:12;;;;;;;;;;;;;;;;;;5061189;28;878;-65
2022/10/02 10:54:55;;;;;;;;;;;;;;;;;;5060521;28;1180;-65
2022/10/02 10:57:24;;;;;;;;;;;;;;;;;;5060872;28;768;-65
2022/10/02 10:59:58;;;;;;;;;;;;;;;;;;5060717;28;1976;-65
2022/10/02 11:02:47;;;;;;;;;;;;;;;;;;5060843;28;917;-65
2022/10/02 11:05:15;;;;;;;;;;;;;;;;;;5060679;28;1126;-65
2022/10/02 11:07:46;;;;;;;;;;;;;;;;;;5060861;28;1037;-65
2022/10/02 11:10:30;;;;;;;;;;;;;;;;;;5060920;28;898;-65
2022/10/02 11:13:01;;;;;;;;;;;;;;;;;;5059751;28;859;-65
2022/10/02 11:15:47;;;;;;;;;;;;;;;;;;5059161;28;1249;-65
2022/10/02 11:18:33;;;;;;;;;;;;;;;;;;5060531;28;1961;-65
2022/10/02 11:20:58;;;;;;;;;;;;;;;;;;5060531;28;842;-65
2022/10/02 11:23:46;;;;;;;;;;;;;;;;;;5060916;28;818;-65
2022/10/02 11:26:31;;;;;;;;;;;;;;;;;;5050100;28;1160;-65
2022/10/02 11:29:10;;;;;;;;;;;;;;;;;;5060844;28;946;-65
2022/10/02 11:31:54;;;;;;;;;;;;;;;;;;5060795;28;827;-65
2022/10/02 11:34:19;;;;;;;;;;;;;;;;;;5060739;28;815;-65
2022/10/02 11:36:47;;;;;;;;;;;;;;;;;;5063676;28;1149;-65
2022/10/02 11:39:25;;;;;;;;;;;;;;;;;;5053682;28;1902;-65
2022/10/02 11:41:52;;;;;;;;;;;;;;;;;;5044198;28;830;-65
2022/10/02 11:44:26;;;;;;;;;;;;;;;;;;5042657;28;1467;-65
2022/10/02 11:47:06;;;;;;;;;;;;;;;;;;5043965;28;1236;-65
2022/10/02 11:49:40;;;;;;;;;;;;;;;;;;5044058;28;853;-65
2022/10/02 11:52:08;;;;;;;;;;;;;;;;;;5043953;28;850;-65
2022/10/02 11:54:43;;;;;;;;;;;;;;;;;;5043529;28;838;-65
2022/10/02 11:57:08;;;;;;;;;;;;;;;;;;5043517;28;921;-65
2022/10/02 11:59:33;;;;;;;;;;;;;;;;;;5043642;28;1890;-65
2022/10/02 12:02:07;;;;;;;;;;;;;;;;;;5043512;28;890;-65
2022/10/02 12:04:39;;;;;;;;;;;;;;;;;;5043525;28;949;-65
2022/10/02 12:07:23;;;;;;;;;;;;;;;;;;5043630;28;830;-65
2022/10/02 12:09:53;;;;;;;;;;;;;;;;;;5043484;28;862;-65
2022/10/02 12:12:37;;;;;;;;;;;;;;;;;;5043324;28;871;-65
2022/10/02 12:15:13;;;;;;;;;;;;;;;;;;5043143;28;1187;-65
2022/10/02 12:17:52;;;;;;;;;;;;;;;;;;5043412;28;914;-65
2022/10/02 12:29:18;;;;;;;;;;;;;;;;;;5043221;28;640;-65
2022/10/02 12:31:52;;;;;;;;;;;;;;;;;;5043264;28;807;-66
2022/10/02 12:34:34;;;;;;;;;;;;;;;;;;5043335;28;883;-66
2022/10/02 12:37:19;;;;;;;;;;;;;;;;;;5055391;22;3943;-70
2022/10/02 12:40:03;;;;;;;;;;;;;;;;;;5042033;28;1909;-71
2022/10/02 12:42:29;;;;;;;;;;;;;;;;;;5043025;28;838;-70
2022/10/02 12:45:04;;;;;;;;;;;;;;;;;;5042746;28;885;-70
2022/10/02 12:47:39;;;;;;;;;;;;;;;;;;5022557;28;890;-70
2022/10/02 12:50:20;;;;;;;;;;;;;;;;;;5022973;28;800;-71
2022/10/02 12:53:04;;;;;;;;;;;;;;;;;;5022887;28;847;-71
2022/10/02 12:55:42;;;;;;;;;;;;;;;;;;5022635;28;1164;-71
2022/10/02 12:58:22;;;;;;;;;;;;;;;;;;5022723;28;1953;-71
2022/10/02 13:00:59;;;;;;;;;;;;;;;;;;5022806;28;851;-70
2022/10/02 13:03:39;;;;;;;;;;;;;;;;;;5005177;28;820;-71
2022/10/02 13:06:10;;;;;;;;;;;;;;;;;;5022552;28;1164;-71
2022/10/02 13:08:38;;;;;;;;;;;;;;;;;;5022607;28;895;-71
2022/10/02 13:11:22;;;;;;;;;;;;;;;;;;5022726;28;925;-71
2022/10/02 13:13:50;;;;;;;;;;;;;;;;;;5022592;28;978;-70
2022/10/02 13:16:18;;;;;;;;;;;;;;;;;;5022373;28;1244;-71
2022/10/02 13:18:54;;;;;;;;;;;;;;;;;;5022639;28;1894;-71
2022/10/02 13:21:34;;;;;;;;;;;;;;;;;;5022566;28;882;-71
2022/10/02 13:24:11;;;;;;;;;;;;;;;;;;5022469;28;903;-71
2022/10/02 13:26:41;;;;;;;;;;;;;;;;;;5022277;28;1256;-71
2022/10/02 13:29:12;;;;;;;;;;;;;;;;;;5022345;28;843;-70
2022/10/02 13:31:50;;;;;;;;;;;;;;;;;;5022440;28;903;-71
2022/10/02 13:34:32;;;;;;;;;;;;;;;;;;5022320;28;827;-70
2022/10/02 13:37:12;;;;;;;;;;;;;;;;;;5022242;28;1161;-71
2022/10/02 13:39:44;;;;;;;;;;;;;;;;;;5022019;28;1898;-70
2022/10/02 13:42:24;;;;;;;;;;;;;;;;;;5022348;28;997;-70
2022/10/02 13:45:08;;;;;;;;;;;;;;;;;;5021889;28;914;-70
2022/10/02 13:47:39;;;;;;;;;;;;;;;;;;5022080;28;1079;-70
2022/10/02 13:50:23;;;;;;;;;;;;;;;;;;5021798;28;815;-70
2022/10/02 13:53:06;;;;;;;;;;;;;;;;;;5022054;28;926;-70
2022/10/02 13:55:36;;;;;;;;;;;;;;;;;;5021857;28;1156;-70
2022/10/02 13:58:20;;;;;;;;;;;;;;;;;;5021287;28;1882;-70
2022/10/02 14:00:45;;;;;;;;;;;;;;;;;;5021647;28;1021;-70
2022/10/02 14:03:10;;;;;;;;;;;;;;;;;;5022236;28;858;-71
2022/10/02 14:05:41;;;;;;;;;;;;;;;;;;5021548;28;1243;-70
2022/10/02 14:08:25;;;;;;;;;;;;;;;;;;5022125;28;886;-71
2022/10/02 14:11:15;;;;;;;;;;;;;;;;;;5021661;28;977;-70
2022/10/02 14:13:47;;;;;;;;;;;;;;;;;;5021595;28;1525;-70
2022/10/02 14:16:24;;;;;;;;;;;;;;;;;;5021466;28;1168;-70
2022/10/02 14:19:12;;;;;;;;;;;;;;;;;;5022016;28;1889;-70
2022/10/02 14:22:00;;;;;;;;;;;;;;;;;;5021732;28;886;-70
2022/10/02 14:27:22;;;;;;;;;;;;;;;;;;5021937;28;1212;-71
2022/10/02 14:29:56;;;;;;;;;;;;;;;;;;5021456;28;958;-70
2022/10/02 14:32:40;;;;;;;;;;;;;;;;;;5021798;28;994;-70
2022/10/02 14:35:19;;;;;;;;;;;;;;;;;;5021175;28;1188;-70
2022/10/02 14:37:54;;;;;;;;;;;;;;;;;;5021327;28;962;-71
2022/10/02 14:40:20;;;;;;;;;;;;;;;;;;5021052;28;1864;-71
2022/10/02 14:43:07;;;;;;;;;;;;;;;;;;5003894;28;1767;-70
2022/10/02 14:45:56;;;;;;;;;;;;;;;;;;5021414;28;1220;-70
2022/10/02 14:48:35;;;;;;;;;;;;;;;;;;5021407;28;870;-70
2022/10/02 14:51:19;;;;;;;;;;;;;;;;;;5021226;28;903;-71
2022/10/02 14:54:07;;;;;;;;;;;;;;;;;;5021291;28;890;-70
2022/10/02 14:56:48;;;;;;;;;;;;;;;;;;5010177;28;1172;-70
2022/10/02 14:59:13;;;;;;;;;;;;;;;;;;5021420;28;1960;-70
2022/10/02 15:01:41;;;;;;;;;;;;;;;;;;5021080;28;870;-70
2022/10/02 15:04:25;;;;;;;;;;;;;;;;;;5021149;28;838;-71
2022/10/02 15:07:10;;;;;;;;;;;;;;;;;;5020931;28;1169;-71
2022/10/02 15:09:57;;;;;;;;;;;;;;;;;;5021735;28;898;-71
2022/10/02 15:12:42;;;;;;;;;;;;;;;;;;5024632;28;831;-73
2022/10/02 15:15:32;;;;;;;;;;;;;;;;;;5010015;28;1214;-73
2022/10/02 15:18:16;;;;;;;;;;;;;;;;;;5024814;28;815;-73
2022/10/02 15:21:19;;;;;;;;;;;;;;;;;;5024330;28;862;-73
2022/10/02 15:23:46;;;;;;;;;;;;;;;;;;4944452;29;1275;-73
2022/10/02 15:26:14;;;;;;;;;;;;;;;;;;4943829;29;1193;-73
2022/10/02 15:28:58;;;;;;;;;;;;;;;;;;4983071;28;1136;-70
2022/10/02 15:31:35;;;;;;;;;;;;;;;;;;5024144;28;997;-70
2022/10/02 15:34:15;;;;;;;;;;;;;;;;;;5024411;28;997;-70
2022/10/02 15:37:00;;;;;;;;;;;;;;;;;;5023917;28;1225;-70
2022/10/02 15:39:32;;;;;;;;;;;;;;;;;;5024264;28;1956;-70
2022/10/02 15:42:02;;;;;;;;;;;;;;;;;;5022446;28;997;-70
2022/10/02 15:44:34;;;;;;;;;;;;;;;;;;5024035;28;882;-70
2022/10/02 15:47:29;;;;;;;;;;;;;;;;;;5024092;28;1237;-70
2022/10/02 15:49:55;;;;;;;;;;;;;;;;;;4953615;28;1163;-70
2022/10/02 15:52:26;;;;;;;;;;;;;;;;;;5023829;28;808;-70
2022/10/02 15:55:16;;;;;;;;;;;;;;;;;;5023943;28;1009;-70
2022/10/02 15:58:02;;;;;;;;;;;;;;;;;;5023864;28;985;-71
2022/10/02 16:00:30;;;;;;;;;;;;;;;;;;5024153;28;1945;-70
2022/10/02 16:03:14;;;;;;;;;;;;;;;;;;5023711;28;1001;-71
2022/10/02 16:05:51;;;;;;;;;;;;;;;;;;5023425;28;1208;-71
2022/10/02 16:08:16;;;;;;;;;;;;;;;;;;5023544;28;1116;-71
2022/10/02 16:11:00;;;;;;;;;;;;;;;;;;5023562;28;1001;-71
2022/10/02 16:13:36;;;;;;;;;;;;;;;;;;5023539;28;902;-70
2022/10/02 16:16:01;;;;;;;;;;;;;;;;;;5023196;28;1202;-70
2022/10/02 16:18:39;;;;;;;;;;;;;;;;;;5023527;28;1894;-71
2022/10/02 16:21:23;;;;;;;;;;;;;;;;;;5022791;28;989;-71
2022/10/02 16:24:09;;;;;;;;;;;;;;;;;;5023460;28;859;-71
2022/10/02 16:26:40;;;;;;;;;;;;;;;;;;5023123;28;1199;-71
2022/10/02 16:29:15;;;;;;;;;;;;;;;;;;5023336;28;1044;-70
2022/10/02 16:31:48;;;;;;;;;;;;;;;;;;5023546;28;912;-71
2022/10/02 16:34:32;;;;;;;;;;;;;;;;;;5023405;28;946;-71
2022/10/02 16:37:05;;;;;;;;;;;;;;;;;;5023146;28;1160;-71
2022/10/02 16:39:33;;;;;;;;;;;;;;;;;;5023096;28;1894;-71
2022/10/02 16:42:21;;;;;;;;;;;;;;;;;;5023063;28;870;-71
2022/10/02 16:44:54;;;;;;;;;;;;;;;;;;5012175;28;1797;-70
2022/10/02 16:47:25;;;;;;;;;;;;;;;;;;5023016;28;1342;-71
2022/10/02 16:49:56;;;;;;;;;;;;;;;;;;5022943;28;954;-71
2022/10/02 16:52:27;;;;;;;;;;;;;;;;;;5023121;28;859;-71
2022/10/02 16:54:52;;;;;;;;;;;;;;;;;;5022686;28;973;-70
2022/10/02 16:57:28;;;;;;;;;;;;;;;;;;5022949;28;1169;-70
2022/10/02 16:59:53;;;;;;;;;;;;;;;;;;5022789;28;1871;-71
2022/10/02 17:02:21;;;;;;;;;;;;;;;;;;5022671;28;978;-71
2022/10/02 17:04:53;;;;;;;;;;;;;;;;;;5022577;28;1033;-71
2022/10/02 17:07:28;;;;;;;;;;;;;;;;;;5022877;28;1188;-71
2022/10/02 17:09:57;;;;;;;;;;;;;;;;;;5022659;28;909;-73
2022/10/02 17:12:26;;;;;;;;;;;;;;;;;;5022619;28;843;-73
2022/10/02 17:15:10;;;;;;;;;;;;;;;;;;5022687;28;732;-73
2022/10/02 17:17:41;;;;;;;;;;;;;;;;;;5022578;28;907;-73
2022/10/02 17:20:09;;;;;;;;;;;;;;;;;;5022953;28;1894;-74
2022/10/02 17:22:41;;;;;;;;;;;;;;;;;;5004830;28;1045;-73
2022/10/02 17:25:15;;;;;;;;;;;;;;;;;;5022167;28;1173;-74
2022/10/02 17:27:46;;;;;;;;;;;;;;;;;;5022730;28;866;-73
2022/10/02 17:30:29;;;;;;;;;;;;;;;;;;5022403;28;923;-74
2022/10/02 17:32:55;;;;;;;;;;;;;;;;;;5022318;28;870;-74
2022/10/02 17:35:32;;;;;;;;;;;;;;;;;;5021949;28;1283;-73
2022/10/02 17:38:04;;;;;;;;;;;;;;;;;;5022423;28;977;-73
2022/10/02 17:40:38;;;;;;;;;;;;;;;;;;5022190;28;1894;-73
2022/10/02 17:43:18;;;;;;;;;;;;;;;;;;5022464;28;954;-74
2022/10/02 17:45:49;;;;;;;;;;;;;;;;;;5022610;28;1203;-73
2022/10/02 17:48:26;;;;;;;;;;;;;;;;;;5022502;28;928;-71
2022/10/02 17:50:51;;;;;;;;;;;;;;;;;;5022151;28;866;-71
2022/10/02 17:56:29;;;;;;;;;;;;;;;;;;5021655;28;1303;-70
2022/10/02 17:59:11;;;;;;;;;;;;;;;;;;5022178;28;1914;-70
2022/10/02 18:01:56;;;;;;;;;;;;;;;;;;5021844;28;858;-70
2022/10/02 18:04:24;;;;;;;;;;;;;;;;;;5021862;28;961;-70
2022/10/02 18:07:08;;;;;;;;;;;;;;;;;;5021799;28;1235;-70
2022/10/02 18:09:52;;;;;;;;;;;;;;;;;;5021886;28;958;-71
2022/10/02 18:12:38;;;;;;;;;;;;;;;;;;5021753;28;895;-70
2022/10/02 18:15:22;;;;;;;;;;;;;;;;;;5021373;28;1208;-71
2022/10/02 18:18:07;;;;;;;;;;;;;;;;;;5003937;28;1355;-71
2022/10/02 18:20:33;;;;;;;;;;;;;;;;;;5021763;28;1883;-71